Terminal Aerodrome Forecast
Issued by NWS Shreveport, LA

Home | Current Version | Previous Version | Text Only | Print | Product List | Glossary On
Versions: 1 2 3 4 5 6 7 8 9 10 11 12 13
000
FTUS44 KSHV 182348
TAFSHV
TAF
KSHV 182348Z 1900/1924 13004KT P6SM SCT280
     FM191400 11005KT P6SM SCT015 SCT250
      TEMPO 1914/1916 BKN015
     FM191600 12002KT P6SM BKN025 BKN280
     FM191800 11006KT P6SM SCT035 BKN280=

USA.gov is the U.S. government's official web portal to all federal, state and local government web resources and services.